Time;durP1;ratioP1;P1;durP2;ratioP2;P2;SDS_P1;SDS_P2;PMS_P1;PMS_P2;Temp;Humidity;BMP_temperature;BMP_pressure;BME280_temperature;BME280_humidity;BME280_pressure;Samples;Min_cycle;Max_cycle;Signal;HPM_P1;HPM_P2
2022/10/27 00:00:54;;;;;;;2.15;1.35;;;20.10;65.90;;;;;;5111107;27;43792;-60
2022/10/27 00:03:21;;;;;;;1.10;1.10;;;20.10;65.90;;;;;;5111974;27;43955;-60
2022/10/27 00:05:49;;;;;;;2.08;1.48;;;20.00;65.80;;;;;;5109682;27;43488;-60
2022/10/27 00:08:19;;;;;;;1.40;1.30;;;20.10;65.90;;;;;;5110125;27;43490;-60
2022/10/27 00:11:04;;;;;;;1.25;1.10;;;20.10;65.90;;;;;;5110221;27;44692;-60
2022/10/27 00:13:31;;;;;;;1.20;1.17;;;20.10;65.90;;;;;;5110166;27;43802;-60
2022/10/27 00:16:01;;;;;;;1.27;1.10;;;20.10;66.00;;;;;;5116048;27;43423;-60
2022/10/27 00:18:29;;;;;;;1.75;1.10;;;20.00;66.00;;;;;;5115575;27;43429;-60
2022/10/27 00:21:02;;;;;;;1.50;1.23;;;20.00;65.90;;;;;;5112783;27;44111;-60
2022/10/27 00:23:30;;;;;;;1.15;1.02;;;20.00;66.00;;;;;;5108051;27;43423;-60
2022/10/27 00:25:59;;;;;;;1.05;1.00;;;20.00;66.00;;;;;;5110092;27;43470;-60
2022/10/27 00:28:27;;;;;;;1.30;1.20;;;20.00;66.00;;;;;;5109913;27;43425;-60
2022/10/27 00:31:06;;;;;;;1.35;1.25;;;20.00;66.00;;;;;;5113641;27;44108;-60
2022/10/27 00:33:34;;;;;;;1.45;1.10;;;20.00;66.00;;;;;;5117041;27;43986;-60
2022/10/27 00:36:19;;;;;;;1.17;1.05;;;20.00;66.00;;;;;;5109459;27;43480;-60
2022/10/27 00:38:47;;;;;;;1.20;1.10;;;20.00;66.00;;;;;;5113215;27;43383;-60
2022/10/27 00:41:29;;;;;;;1.00;1.00;;;20.00;66.00;;;;;;5122683;27;43914;-60
2022/10/27 00:43:59;;;;;;;1.20;1.10;;;20.00;66.00;;;;;;5109469;27;43470;-60
2022/10/27 00:46:42;;;;;;;1.10;1.00;;;20.00;66.00;;;;;;5111380;27;43506;-60
2022/10/27 00:49:13;;;;;;;1.30;1.10;;;20.00;66.00;;;;;;5110225;27;43425;-60
2022/10/27 00:51:46;;;;;;;1.50;1.30;;;20.00;66.00;;;;;;5108573;27;43889;-60
2022/10/27 00:54:16;;;;;;;1.23;1.10;;;20.00;66.00;;;;;;5111081;27;43448;-59
2022/10/27 00:56:46;;;;;;;1.80;1.20;;;19.90;66.00;;;;;;5110504;27;43458;-60
2022/10/27 00:59:14;;;;;;;0.95;0.88;;;20.00;66.00;;;;;;5108284;27;43525;-60
2022/10/27 01:01:43;;;;;;;1.30;1.20;;;19.90;66.00;;;;;;5109485;27;44036;-60
2022/10/27 01:04:13;;;;;;;0.90;0.90;;;19.90;66.00;;;;;;5119196;27;44183;-60
2022/10/27 01:06:41;;;;;;;0.90;0.90;;;19.90;66.00;;;;;;5109426;27;43481;-60
2022/10/27 01:09:10;;;;;;;0.90;0.90;;;19.90;66.00;;;;;;5110141;27;43383;-60
2022/10/27 01:11:38;;;;;;;0.90;0.90;;;19.90;66.00;;;;;;5108760;27;43879;-60
2022/10/27 01:14:05;;;;;;;1.02;0.90;;;19.90;66.00;;;;;;5112607;27;43450;-60
2022/10/27 01:16:47;;;;;;;1.35;0.95;;;19.90;66.00;;;;;;5109425;27;43416;-60
2022/10/27 01:19:42;;;;;;;1.00;0.90;;;19.90;66.00;;;;;;5109572;27;43501;-60
2022/10/27 01:22:40;;;;;;;0.98;0.95;;;19.90;66.00;;;;;;5110107;27;43787;-60
2022/10/27 01:25:55;;;;;;;1.08;1.00;;;19.90;66.00;;;;;;5108677;27;43951;-60
2022/10/27 01:28:41;;;;;;;0.90;0.90;;;19.90;66.00;;;;;;5109272;27;43390;-60
2022/10/27 01:31:23;;;;;;;1.02;0.93;;;19.90;66.10;;;;;;5109573;27;43479;-60
2022/10/27 01:34:02;;;;;;;0.90;0.90;;;19.90;66.10;;;;;;5112200;27;43735;-60
2022/10/27 01:36:41;;;;;;;1.77;1.05;;;19.80;66.00;;;;;;5116100;27;43419;-60
2022/10/27 01:39:58;;;;;;;1.15;1.05;;;19.80;66.00;;;;;;5120041;27;43507;-60
2022/10/27 01:42:40;;;;;;;1.02;0.90;;;19.80;66.10;;;;;;5113492;27;43661;-60
2022/10/27 01:45:10;;;;;;;1.15;1.05;;;19.80;66.10;;;;;;5113460;27;45156;-60
2022/10/27 01:47:39;;;;;;;1.60;1.17;;;19.80;66.10;;;;;;5121393;27;43880;-60
2022/10/27 01:50:08;;;;;;;1.20;0.98;;;19.80;66.10;;;;;;5117831;27;43466;-60
2022/10/27 01:52:47;;;;;;;1.20;1.10;;;19.80;66.10;;;;;;5108094;27;43636;-60
2022/10/27 01:55:57;;;;;;;1.77;1.05;;;19.80;66.00;;;;;;5109837;27;44039;-60
2022/10/27 01:58:51;;;;;;;0.82;0.77;;;19.70;66.00;;;;;;5118731;27;43482;-60
2022/10/27 02:01:40;;;;;;;0.93;0.90;;;19.80;66.10;;;;;;5108592;27;43460;-60
2022/10/27 02:04:36;;;;;;;0.90;0.90;;;19.80;66.20;;;;;;5099992;27;43604;-60
2022/10/27 02:07:25;;;;;;;1.02;0.93;;;19.80;66.10;;;;;;5109771;27;45007;-60
2022/10/27 02:10:02;;;;;;;1.52;1.00;;;19.80;66.10;;;;;;5116069;27;43982;-60
2022/10/27 02:12:32;;;;;;;1.02;1.00;;;19.70;66.20;;;;;;5108411;27;43546;-60
2022/10/27 02:15:04;;;;;;;1.53;0.93;;;19.70;66.20;;;;;;5110692;27;43418;-60
2022/10/27 02:17:37;;;;;;;1.17;1.05;;;19.70;66.20;;;;;;5106572;27;44716;-60
2022/10/27 02:20:12;;;;;;;0.90;0.90;;;19.70;66.20;;;;;;5108463;27;44020;-59
2022/10/27 02:22:42;;;;;;;1.20;1.10;;;19.70;66.20;;;;;;5108481;27;43502;-60
2022/10/27 02:25:13;;;;;;;0.90;0.90;;;19.70;66.20;;;;;;5109908;27;43433;-60
2022/10/27 02:27:46;;;;;;;1.25;1.15;;;19.70;66.20;;;;;;5107936;27;44940;-60
2022/10/27 02:30:14;;;;;;;0.82;0.80;;;19.70;66.20;;;;;;5108209;27;43414;-60
2022/10/27 02:32:43;;;;;;;1.33;1.02;;;19.70;66.20;;;;;;5110532;27;43487;-60
2022/10/27 02:35:11;;;;;;;1.20;1.00;;;19.70;66.20;;;;;;5108738;27;43480;-60
2022/10/27 02:37:41;;;;;;;2.00;1.20;;;19.70;66.20;;;;;;5107069;27;44997;-60
2022/10/27 02:40:09;;;;;;;1.00;0.90;;;19.60;66.20;;;;;;5118427;27;43826;-60
2022/10/27 02:42:36;;;;;;;0.80;0.80;;;19.70;66.30;;;;;;5114516;27;43511;-61
2022/10/27 02:45:04;;;;;;;1.10;1.00;;;19.60;66.20;;;;;;5108100;27;43492;-61
2022/10/27 02:47:32;;;;;;;1.23;0.98;;;19.60;66.20;;;;;;5107365;27;43863;-60
2022/10/27 02:49:59;;;;;;;1.13;1.00;;;19.60;66.20;;;;;;5089311;27;44157;-60
2022/10/27 02:52:27;;;;;;;1.33;1.13;;;19.60;66.20;;;;;;5110004;27;43401;-60
2022/10/27 02:54:54;;;;;;;2.10;1.35;;;19.60;66.30;;;;;;5115303;27;43592;-60
2022/10/27 02:57:21;;;;;;;2.33;1.40;;;19.60;66.20;;;;;;5106945;27;43796;-60
2022/10/27 02:59:49;;;;;;;1.35;0.90;;;19.60;66.20;;;;;;5105161;27;43374;-60
2022/10/27 03:02:21;;;;;;;0.90;0.90;;;19.60;66.20;;;;;;5111295;27;43435;-60
2022/10/27 03:04:50;;;;;;;1.15;1.00;;;19.60;66.30;;;;;;5119268;27;43494;-61
2022/10/27 03:07:18;;;;;;;0.93;0.90;;;19.60;66.30;;;;;;5106921;27;43911;-60
2022/10/27 03:09:45;;;;;;;1.17;0.80;;;19.60;66.30;;;;;;5107025;27;43509;-60
2022/10/27 03:12:13;;;;;;;1.40;1.30;;;19.60;66.30;;;;;;5107878;27;43467;-60
2022/10/27 03:14:40;;;;;;;0.82;0.80;;;19.60;66.30;;;;;;5111672;27;43561;-61
2022/10/27 03:17:08;;;;;;;1.63;1.10;;;19.60;66.30;;;;;;5119883;27;45277;-60
2022/10/27 03:19:35;;;;;;;1.10;1.00;;;19.60;66.30;;;;;;5110542;27;44041;-60
2022/10/27 03:22:02;;;;;;;0.90;0.90;;;19.60;66.30;;;;;;5121278;27;43433;-60
2022/10/27 03:24:30;;;;;;;1.02;0.93;;;19.60;66.30;;;;;;5106677;27;43419;-60
2022/10/27 03:26:58;;;;;;;0.90;0.90;;;19.60;66.40;;;;;;5106951;27;45327;-60
2022/10/27 03:29:25;;;;;;;1.20;1.10;;;19.60;66.40;;;;;;5106991;27;43835;-60
2022/10/27 03:31:53;;;;;;;1.70;1.00;;;19.60;66.40;;;;;;5107028;27;43421;-60
2022/10/27 03:34:20;;;;;;;1.20;1.10;;;19.60;66.40;;;;;;5107156;27;43427;-60
2022/10/27 03:36:49;;;;;;;2.88;1.10;;;19.60;66.40;;;;;;5106695;27;44972;-60
2022/10/27 03:39:16;;;;;;;1.65;1.00;;;19.50;66.30;;;;;;5106521;27;43467;-60
2022/10/27 03:41:43;;;;;;;1.25;1.00;;;19.50;66.30;;;;;;5118844;27;43422;-60
2022/10/27 03:44:11;;;;;;;1.27;1.00;;;19.60;66.40;;;;;;5107373;27;43576;-60
2022/10/27 03:46:38;;;;;;;1.00;1.00;;;19.60;66.40;;;;;;5105720;27;44994;-60
2022/10/27 03:49:06;;;;;;;0.65;0.60;;;19.60;66.40;;;;;;5106795;27;43509;-60
2022/10/27 03:51:33;;;;;;;1.08;0.98;;;19.50;66.40;;;;;;5107165;27;43464;-60
2022/10/27 03:54:00;;;;;;;1.15;0.85;;;19.50;66.30;;;;;;5106580;27;43677;-60
2022/10/27 03:56:28;;;;;;;0.90;0.80;;;19.50;66.30;;;;;;5105960;27;43587;-60
2022/10/27 03:58:55;;;;;;;1.15;1.00;;;19.50;66.30;;;;;;5116350;27;43964;-60
2022/10/27 04:01:23;;;;;;;1.15;1.05;;;19.50;66.30;;;;;;5109637;27;43473;-60
2022/10/27 04:03:50;;;;;;;0.77;0.70;;;19.50;66.30;;;;;;5104259;27;43470;-60
2022/10/27 04:06:18;;;;;;;1.45;1.10;;;19.50;66.30;;;;;;5105836;27;44032;-60
2022/10/27 04:08:45;;;;;;;0.93;0.93;;;19.50;66.30;;;;;;5115220;27;43451;-60
2022/10/27 04:11:13;;;;;;;1.00;0.80;;;19.50;66.30;;;;;;5110544;27;43472;-60
2022/10/27 04:13:40;;;;;;;1.08;1.02;;;19.50;66.30;;;;;;5106115;27;43431;-60
2022/10/27 04:16:08;;;;;;;1.05;0.95;;;19.50;66.40;;;;;;5106485;27;44667;-60
2022/10/27 04:18:36;;;;;;;0.80;0.80;;;19.50;66.30;;;;;;5106227;27;43676;-60
2022/10/27 04:21:05;;;;;;;0.82;0.82;;;19.50;66.30;;;;;;5106905;27;43453;-60
2022/10/27 04:23:32;;;;;;;1.35;1.10;;;19.50;66.30;;;;;;5106103;27;43569;-60
2022/10/27 04:25:59;;;;;;;0.98;0.98;;;19.50;66.30;;;;;;5106313;27;44915;-60
2022/10/27 04:28:27;;;;;;;1.10;1.00;;;19.50;66.30;;;;;;5106008;27;43469;-60
2022/10/27 04:30:54;;;;;;;0.93;0.82;;;19.50;66.30;;;;;;5110103;27;43331;-60
2022/10/27 04:33:22;;;;;;;0.88;0.88;;;19.50;66.30;;;;;;5107241;27;43536;-60
2022/10/27 04:35:56;;;;;;;3.55;0.98;;;19.50;66.30;;;;;;5112869;27;43992;-60
2022/10/27 04:38:23;;;;;;;1.35;1.10;;;19.50;66.40;;;;;;5107126;27;43945;-60
2022/10/27 04:40:51;;;;;;;1.83;1.17;;;19.50;66.40;;;;;;5109400;27;43417;-60
2022/10/27 04:43:19;;;;;;;1.38;1.27;;;19.50;66.40;;;;;;5116140;27;43461;-60
2022/10/27 04:45:46;;;;;;;1.00;0.90;;;19.40;66.30;;;;;;5109295;27;44927;-60
2022/10/27 04:48:14;;;;;;;0.88;0.88;;;19.40;66.30;;;;;;5111123;27;43820;-60
2022/10/27 04:50:41;;;;;;;1.13;1.00;;;19.40;66.30;;;;;;5111521;27;43445;-60
2022/10/27 04:53:09;;;;;;;1.02;1.00;;;19.50;66.40;;;;;;5109453;27;43956;-60
2022/10/27 04:55:36;;;;;;;0.70;0.70;;;19.40;66.30;;;;;;5108620;27;44919;-60
2022/10/27 04:58:03;;;;;;;0.88;0.88;;;19.40;66.30;;;;;;5110601;27;44003;-60
2022/10/27 05:00:36;;;;;;;1.00;0.90;;;19.40;66.30;;;;;;5109874;27;43351;-60
2022/10/27 05:03:03;;;;;;;0.90;0.90;;;19.40;66.30;;;;;;5111656;27;43659;-60
2022/10/27 05:05:31;;;;;;;0.98;0.80;;;19.40;66.30;;;;;;5115152;27;45039;-60
2022/10/27 05:08:00;;;;;;;0.77;0.77;;;19.40;66.30;;;;;;5112629;27;43548;-60
2022/10/27 05:10:29;;;;;;;1.02;1.00;;;19.40;66.90;;;;;;5119095;27;43439;-61
2022/10/27 05:12:57;;;;;;;2.15;1.00;;;19.40;66.30;;;;;;5118195;27;43575;-60
2022/10/27 05:15:25;;;;;;;0.70;0.70;;;19.40;66.30;;;;;;5112096;27;44938;-61
2022/10/27 05:17:53;;;;;;;1.33;1.23;;;19.40;66.30;;;;;;5120201;27;43413;-61
2022/10/27 05:20:21;;;;;;;1.10;1.00;;;19.40;66.30;;;;;;5121553;27;43483;-60
2022/10/27 05:22:48;;;;;;;1.65;1.15;;;19.40;66.30;;;;;;5119362;27;43494;-60
2022/10/27 05:25:16;;;;;;;1.27;1.17;;;19.40;66.30;;;;;;5111328;27;44775;-60
2022/10/27 05:27:43;;;;;;;1.27;1.17;;;19.40;66.40;;;;;;5121928;27;43509;-60
2022/10/27 05:30:11;;;;;;;1.23;1.20;;;19.40;66.40;;;;;;5120798;27;43458;-61
2022/10/27 05:32:39;;;;;;;1.13;0.90;;;19.40;66.30;;;;;;5114079;27;43548;-60
2022/10/27 05:35:13;;;;;;;3.75;1.38;;;19.40;66.40;;;;;;5115902;27;44084;-60
2022/10/27 05:37:45;;;;;;;1.75;1.00;;;19.40;66.40;;;;;;5113507;27;43961;-60
2022/10/27 05:40:13;;;;;;;1.38;1.27;;;19.40;66.40;;;;;;5121127;27;43422;-60
2022/10/27 05:42:52;;;;;;;1.08;1.05;;;19.40;66.40;;;;;;5109046;27;43464;-60
2022/10/27 05:45:21;;;;;;;1.20;1.05;;;19.40;66.40;;;;;;5121050;27;44742;-60
2022/10/27 05:47:55;;;;;;;1.00;1.00;;;19.40;66.40;;;;;;5119611;27;43790;-59
2022/10/27 05:50:23;;;;;;;1.90;0.90;;;19.40;66.40;;;;;;5118434;27;43419;-59
2022/10/27 05:52:50;;;;;;;1.55;1.27;;;19.40;66.40;;;;;;5111294;27;43569;-60
2022/10/27 05:55:19;;;;;;;0.90;0.90;;;19.40;66.30;;;;;;5119059;27;43982;-60
2022/10/27 05:57:58;;;;;;;1.13;0.93;;;19.40;66.50;;;;;;5119254;27;43424;-60
2022/10/27 06:00:31;;;;;;;1.20;1.10;;;19.40;66.40;;;;;;5108094;27;43387;-60
2022/10/27 06:03:00;;;;;;;1.42;0.75;;;19.40;66.30;;;;;;5114441;27;43457;-60
2022/10/27 06:05:29;;;;;;;1.10;1.00;;;19.40;66.30;;;;;;5112766;27;43959;-59
2022/10/27 06:07:57;;;;;;;0.88;0.88;;;19.40;66.30;;;;;;5100135;27;43463;-59
2022/10/27 06:10:25;;;;;;;1.40;1.30;;;19.40;66.40;;;;;;5119051;27;43403;-60
2022/10/27 06:12:59;;;;;;;2.35;1.35;;;19.40;66.30;;;;;;5113088;27;43434;-60
2022/10/27 06:15:26;;;;;;;1.10;1.00;;;19.40;66.30;;;;;;5115596;27;44262;-60
2022/10/27 06:17:53;;;;;;;1.25;0.93;;;19.40;66.40;;;;;;5119602;27;43423;-60
2022/10/27 06:20:21;;;;;;;1.38;1.27;;;19.40;66.40;;;;;;5116898;27;43469;-60
2022/10/27 06:22:49;;;;;;;1.15;1.05;;;19.40;66.40;;;;;;5116414;27;43424;-60
2022/10/27 06:25:17;;;;;;;0.95;0.95;;;19.40;66.30;;;;;;5114688;27;44986;-60
2022/10/27 06:27:44;;;;;;;1.40;1.17;;;19.40;66.30;;;;;;5123137;27;43481;-60
2022/10/27 06:30:12;;;;;;;1.15;1.02;;;19.40;66.40;;;;;;5109099;27;43483;-60
2022/10/27 06:32:40;;;;;;;1.30;1.20;;;19.40;66.30;;;;;;5114176;27;43418;-60
2022/10/27 06:35:09;;;;;;;1.02;1.00;;;19.40;66.30;;;;;;5115430;27;44818;-60
2022/10/27 06:37:42;;;;;;;0.82;0.82;;;19.40;66.40;;;;;;5123661;27;43760;-60
2022/10/27 06:40:11;;;;;;;0.98;0.90;;;19.40;66.40;;;;;;5108554;27;43458;-60
2022/10/27 06:42:39;;;;;;;1.85;1.30;;;19.40;66.40;;;;;;5110507;27;43605;-60
2022/10/27 06:45:26;;;;;;;1.25;1.10;;;19.40;66.30;;;;;;5121102;27;44330;-60
2022/10/27 06:47:58;;;;;;;0.90;0.90;;;19.40;66.40;;;;;;5113155;27;43964;-60
2022/10/27 06:50:25;;;;;;;1.23;0.90;;;19.40;66.40;;;;;;5113620;27;43431;-60
2022/10/27 06:52:53;;;;;;;1.02;0.98;;;19.40;66.40;;;;;;5111991;27;43668;-60
2022/10/27 06:55:21;;;;;;;1.10;1.00;;;19.40;66.40;;;;;;5113739;27;45355;-60
2022/10/27 06:57:49;;;;;;;1.00;1.00;;;19.30;66.40;;;;;;5111960;27;43438;-60
2022/10/27 07:00:17;;;;;;;1.33;1.10;;;19.30;66.40;;;;;;5112180;27;43396;-60
2022/10/27 07:02:45;;;;;;;1.05;0.90;;;19.30;66.40;;;;;;5114537;27;43604;-60
2022/10/27 07:05:12;;;;;;;1.08;0.98;;;19.30;66.40;;;;;;5112973;27;44634;-60
2022/10/27 07:07:44;;;;;;;1.05;0.90;;;19.40;66.50;;;;;;5100665;27;43703;-60
2022/10/27 07:10:11;;;;;;;1.00;0.90;;;19.40;66.40;;;;;;5118707;27;43488;-60
2022/10/27 07:12:39;;;;;;;1.20;1.10;;;19.40;66.40;;;;;;5107367;27;43433;-60
2022/10/27 07:15:07;;;;;;;1.00;1.00;;;19.30;66.50;;;;;;5112539;27;44063;-60
2022/10/27 07:17:34;;;;;;;1.30;1.20;;;19.30;66.50;;;;;;5119241;27;43413;-60
2022/10/27 07:20:01;;;;;;;1.63;0.90;;;19.40;66.50;;;;;;5121755;27;43468;-60
2022/10/27 07:22:29;;;;;;;1.35;1.02;;;19.30;66.30;;;;;;5115867;27;43453;-60
2022/10/27 07:24:56;;;;;;;0.90;0.90;;;19.40;66.40;;;;;;5113436;27;44065;-60
2022/10/27 07:27:23;;;;;;;0.70;0.70;;;19.40;66.40;;;;;;5120832;27;43994;-60
2022/10/27 07:29:51;;;;;;;1.45;1.20;;;19.40;66.40;;;;;;5107656;27;43473;-59
2022/10/27 07:32:22;;;;;;;1.27;1.17;;;19.40;66.40;;;;;;5108830;27;43417;-59
2022/10/27 07:34:49;;;;;;;3.72;1.42;;;19.40;66.50;;;;;;5116402;27;45037;-60
2022/10/27 07:37:17;;;;;;;2.58;2.38;;;19.30;66.70;;;;;;5102804;27;44045;-60
2022/10/27 07:39:44;;;;;;;2.40;2.20;;;19.40;66.80;;;;;;5110095;27;43355;-60
2022/10/27 07:42:11;;;;;;;2.30;2.10;;;19.40;66.80;;;;;;5114824;27;43601;-60
2022/10/27 07:44:39;;;;;;;2.38;2.17;;;19.50;66.70;;;;;;5117416;27;44628;-60
2022/10/27 07:47:06;;;;;;;2.30;2.17;;;19.50;66.90;;;;;;5122303;27;43534;-60
2022/10/27 07:49:34;;;;;;;3.17;2.15;;;19.60;66.90;;;;;;5110908;27;43424;-60
2022/10/27 07:52:01;;;;;;;2.35;2.15;;;19.70;67.00;;;;;;5111055;27;43391;-59
2022/10/27 07:54:28;;;;;;;3.67;2.45;;;19.90;66.80;;;;;;5117202;27;43897;-60
2022/10/27 07:56:56;;;;;;;2.33;2.13;;;20.10;66.60;;;;;;5110203;27;43455;-60
2022/10/27 07:59:23;;;;;;;4.28;2.30;;;20.20;66.40;;;;;;5115187;27;43466;-60
2022/10/27 08:01:51;;;;;;;2.30;2.10;;;20.30;66.20;;;;;;5094673;27;43545;-60
2022/10/27 08:04:18;;;;;;;2.40;2.15;;;20.40;66.10;;;;;;5118853;27;44153;-60
2022/10/27 08:06:46;;;;;;;2.20;2.00;;;20.50;65.90;;;;;;5106193;27;43813;-59
2022/10/27 08:09:13;;;;;;;2.30;1.90;;;20.50;65.70;;;;;;5108897;27;43451;-60
2022/10/27 08:11:46;;;;;;;3.65;2.17;;;20.60;65.50;;;;;;5111140;27;43424;-60
2022/10/27 08:14:13;;;;;;;2.25;1.90;;;20.70;65.40;;;;;;5120942;27;43777;-60
2022/10/27 08:16:40;;;;;;;2.08;1.90;;;20.80;65.30;;;;;;5113794;27;44024;-60
2022/10/27 08:19:08;;;;;;;2.42;2.10;;;20.80;65.10;;;;;;5113789;27;43393;-60
2022/10/27 08:21:36;;;;;;;2.10;1.90;;;20.80;65.00;;;;;;5117608;27;43427;-60
2022/10/27 08:24:04;;;;;;;5.05;2.00;;;20.90;65.00;;;;;;5126103;27;43873;-61
2022/10/27 08:26:31;;;;;;;2.88;2.10;;;20.90;65.10;;;;;;5112669;27;43425;-59
2022/10/27 08:28:59;;;;;;;2.00;1.90;;;21.00;65.40;;;;;;5116879;27;43378;-59
2022/10/27 08:31:26;;;;;;;2.85;2.15;;;21.00;65.70;;;;;;5120023;27;43592;-59
2022/10/27 08:33:54;;;;;;;3.03;2.10;;;21.10;65.00;;;;;;5116449;27;44961;-61
2022/10/27 08:36:21;;;;;;;2.33;2.10;;;21.20;65.10;;;;;;5112220;27;44390;-61
2022/10/27 08:38:49;;;;;;;2.00;1.80;;;21.20;65.00;;;;;;5117461;27;43374;-61
2022/10/27 08:41:19;;;;;;;4.40;2.10;;;21.30;64.90;;;;;;5123323;27;43584;-60
2022/10/27 08:44:20;;;;;;;2.58;1.80;;;21.40;64.80;;;;;;5109413;27;43822;-60
2022/10/27 08:47:04;;;;;;;1.80;1.70;;;21.50;64.60;;;;;;5113188;27;43966;-59
2022/10/27 08:49:48;;;;;;;3.10;1.65;;;21.60;64.60;;;;;;5118915;27;43524;-61
2022/10/27 08:52:35;;;;;;;1.92;1.52;;;21.70;64.60;;;;;;5124666;27;43555;-61
2022/10/27 08:55:27;;;;;;;2.50;1.90;;;21.80;64.90;;;;;;5106486;27;44981;-60
2022/10/27 08:58:16;;;;;;;2.30;1.75;;;21.90;64.10;;;;;;5087378;27;44014;-60
2022/10/27 09:00:51;;;;;;;4.32;1.67;;;22.00;63.90;;;;;;5118193;27;43412;-60
2022/10/27 09:03:36;;;;;;;1.60;1.48;;;22.10;63.70;;;;;;5121455;27;44073;-60
2022/10/27 09:06:22;;;;;;;2.42;1.70;;;22.20;63.70;;;;;;5117060;27;44961;-60
2022/10/27 09:09:29;;;;;;;2.70;1.75;;;22.20;63.40;;;;;;5115532;27;44131;-60
2022/10/27 09:12:02;;;;;;;1.88;1.60;;;22.20;63.30;;;;;;5126077;27;43493;-60
2022/10/27 09:15:02;;;;;;;2.40;1.80;;;22.30;63.40;;;;;;5112099;27;43558;-60
2022/10/27 09:17:38;;;;;;;2.75;2.00;;;22.30;63.20;;;;;;5062342;27;45022;-60
2022/10/27 09:20:16;;;;;;;3.40;1.58;;;22.30;63.20;;;;;;5121545;27;44235;-60
2022/10/27 09:22:43;;;;;;;3.15;1.80;;;22.30;63.30;;;;;;5108975;27;43477;-60
2022/10/27 09:25:19;;;;;;;1.40;1.30;;;22.30;63.20;;;;;;5113513;27;43567;-60
2022/10/27 09:27:58;;;;;;;2.00;1.75;;;22.30;63.30;;;;;;5120521;27;43891;-60
2022/10/27 09:30:34;;;;;;;2.05;1.40;;;22.30;63.30;;;;;;5115323;27;43984;-60
2022/10/27 09:33:08;;;;;;;1.60;1.50;;;22.40;63.50;;;;;;5111562;27;43466;-59
2022/10/27 09:35:35;;;;;;;2.45;1.50;;;22.30;63.30;;;;;;5115346;27;43509;-59
2022/10/27 09:38:08;;;;;;;1.67;1.58;;;22.40;63.30;;;;;;5115809;27;44997;-59
2022/10/27 09:40:36;;;;;;;3.28;1.73;;;22.40;63.30;;;;;;5117980;27;43479;-59
2022/10/27 09:43:03;;;;;;;1.83;1.52;;;22.40;63.30;;;;;;5100315;27;43538;-60
2022/10/27 09:45:31;;;;;;;1.58;1.45;;;22.40;63.20;;;;;;5119194;27;43592;-60
2022/10/27 09:48:12;;;;;;;1.50;1.40;;;22.40;63.30;;;;;;5121043;27;44703;-60
2022/10/27 09:50:42;;;;;;;2.67;1.67;;;22.40;63.30;;;;;;5116000;27;43988;-60
2022/10/27 09:53:40;;;;;;;2.03;1.58;;;22.40;63.30;;;;;;5114501;27;43473;-60
2022/10/27 09:56:11;;;;;;;1.48;1.38;;;22.40;63.30;;;;;;5114039;27;43553;-60
2022/10/27 09:59:19;;;;;;;1.58;1.40;;;22.40;63.40;;;;;;5108869;27;44200;-59
2022/10/27 10:02:01;;;;;;;1.52;1.42;;;22.40;63.50;;;;;;5113584;27;43491;-60
2022/10/27 10:04:33;;;;;;;1.15;1.15;;;22.30;63.50;;;;;;5117231;27;43528;-60
2022/10/27 10:07:04;;;;;;;1.55;1.45;;;22.30;63.50;;;;;;5114286;27;43562;-60
2022/10/27 10:09:34;;;;;;;1.63;1.50;;;22.30;63.50;;;;;;5111536;27;43877;-60
2022/10/27 10:12:17;;;;;;;;;;;22.30;63.60;;;;;;5119043;27;43959;-59
2022/10/27 10:14:51;;;;;;;1.77;1.42;;;22.30;63.50;;;;;;5113706;27;43562;-60
2022/10/27 10:17:24;;;;;;;1.67;1.42;;;22.30;63.80;;;;;;5118200;27;43504;-59
2022/10/27 10:19:54;;;;;;;1.20;1.20;;;22.30;63.70;;;;;;5118690;27;44359;-60
2022/10/27 10:22:30;;;;;;;1.30;1.20;;;22.30;63.70;;;;;;5110608;27;43477;-59
2022/10/27 10:25:13;;;;;;;2.25;1.50;;;22.30;63.70;;;;;;5112549;27;43424;-59
2022/10/27 10:27:47;;;;;;;1.50;1.40;;;22.30;63.80;;;;;;5119010;27;43598;-61
2022/10/27 10:30:18;;;;;;;1.50;1.40;;;22.30;63.80;;;;;;5118894;27;44261;-60
2022/10/27 10:32:53;;;;;;;2.60;1.33;;;22.30;63.90;;;;;;5121042;27;43403;-60
2022/10/27 10:35:43;;;;;;;1.40;1.30;;;22.20;63.90;;;;;;5114634;27;43467;-59
2022/10/27 10:38:23;;;;;;;1.50;1.35;;;22.20;64.00;;;;;;5097868;27;43475;-60
2022/10/27 10:41:11;;;;;;;1.95;1.50;;;22.20;64.00;;;;;;5119341;27;44044;-60
2022/10/27 10:43:40;;;;;;;1.58;1.33;;;22.20;64.00;;;;;;5116179;27;44167;-60
2022/10/27 10:46:25;;;;;;;1.45;1.35;;;22.20;64.10;;;;;;5097852;27;43469;-60
2022/10/27 10:48:57;;;;;;;1.50;1.40;;;22.20;64.10;;;;;;5094735;27;43475;-60
2022/10/27 10:51:34;;;;;;;1.90;1.70;;;22.20;64.10;;;;;;5117624;27;43794;-61
2022/10/27 10:54:12;;;;;;;1.65;1.42;;;22.20;64.10;;;;;;5092413;27;43506;-59
2022/10/27 10:56:40;;;;;;;2.25;1.40;;;22.20;64.20;;;;;;5094670;27;44101;-59
2022/10/27 10:59:17;;;;;;;2.63;1.58;;;22.20;64.10;;;;;;5099357;27;43413;-59
2022/10/27 11:01:49;;;;;;;1.85;1.35;;;22.20;64.10;;;;;;5100077;27;44061;-60
2022/10/27 11:04:20;;;;;;;2.90;1.42;;;22.20;64.20;;;;;;5092455;27;43712;-60
2022/10/27 11:06:59;;;;;;;1.92;1.50;;;22.20;64.20;;;;;;5097486;27;43465;-59
2022/10/27 11:09:33;;;;;;;3.40;1.50;;;22.20;64.30;;;;;;5098926;27;43399;-59
2022/10/27 11:12:02;;;;;;;1.40;1.30;;;22.20;64.40;;;;;;5086161;27;43613;-59
2022/10/27 11:14:30;;;;;;;1.52;1.42;;;22.10;64.40;;;;;;5095980;27;43407;-60
2022/10/27 11:17:02;;;;;;;1.85;1.40;;;22.10;64.50;;;;;;5095273;27;43462;-60
2022/10/27 11:19:36;;;;;;;1.42;1.33;;;22.10;64.40;;;;;;5090186;27;43553;-60
2022/10/27 11:22:11;;;;;;;1.60;1.45;;;22.20;64.50;;;;;;5089815;27;45016;-60
2022/10/27 11:25:10;;;;;;;1.50;1.40;;;22.10;64.40;;;;;;5090210;27;43427;-60
2022/10/27 11:27:56;;;;;;;1.60;1.50;;;22.20;64.50;;;;;;5098375;27;43404;-60
2022/10/27 11:30:26;;;;;;;1.52;1.42;;;22.20;64.50;;;;;;5086515;27;43417;-60
2022/10/27 11:33:01;;;;;;;1.60;1.50;;;22.20;64.40;;;;;;5098004;27;43793;-60
2022/10/27 11:35:40;;;;;;;1.65;1.50;;;22.20;64.40;;;;;;5093983;27;43449;-60
2022/10/27 11:38:22;;;;;;;1.60;1.40;;;22.20;64.40;;;;;;5092840;27;43444;-60
2022/10/27 11:41:04;;;;;;;1.55;1.30;;;22.10;64.40;;;;;;5093158;27;43413;-59
2022/10/27 11:43:38;;;;;;;1.55;1.30;;;22.10;64.40;;;;;;5098714;27;44034;-60
2022/10/27 11:46:21;;;;;;;2.08;1.20;;;22.10;64.50;;;;;;5095484;27;43465;-60
2022/10/27 11:49:01;;;;;;;2.80;1.60;;;22.10;64.50;;;;;;5092129;27;43433;-60
2022/10/27 11:51:39;;;;;;;1.88;1.50;;;22.10;64.50;;;;;;5090363;27;43476;-60
2022/10/27 11:54:07;;;;;;;2.25;1.40;;;22.10;64.60;;;;;;5103149;27;43812;-60
2022/10/27 11:56:43;;;;;;;1.67;1.30;;;22.10;64.60;;;;;;5095855;27;43945;-60
2022/10/27 11:59:19;;;;;;;2.47;1.60;;;22.10;64.60;;;;;;5097921;27;43457;-59
2022/10/27 12:02:05;;;;;;;2.55;1.40;;;22.10;64.50;;;;;;5091074;27;43485;-60
2022/10/27 12:04:52;;;;;;;1.23;1.13;;;22.10;64.50;;;;;;5091894;27;43784;-60
2022/10/27 12:07:43;;;;;;;1.77;1.20;;;22.20;64.60;;;;;;5089658;27;43481;-61
2022/10/27 12:10:42;;;;;;;1.73;1.50;;;22.10;64.50;;;;;;5094313;27;43408;-60
2022/10/27 12:13:14;;;;;;;4.20;1.35;;;22.10;64.70;;;;;;5096024;27;43460;-59
2022/10/27 12:16:06;;;;;;;1.80;1.35;;;22.10;64.70;;;;;;5089078;27;44161;-59
2022/10/27 12:18:43;;;;;;;3.08;1.30;;;22.10;64.70;;;;;;5097738;27;43400;-60
2022/10/27 12:21:18;;;;;;;1.75;1.38;;;22.10;64.70;;;;;;5098585;27;43526;-59
2022/10/27 12:24:10;;;;;;;1.95;1.23;;;22.10;64.60;;;;;;5098768;27;44011;-59
2022/10/27 12:26:46;;;;;;;2.40;1.27;;;22.20;64.60;;;;;;5097698;27;43806;-59
2022/10/27 12:29:16;;;;;;;1.38;1.20;;;22.20;64.50;;;;;;5097417;27;43486;-59
2022/10/27 12:32:05;;;;;;;1.30;1.08;;;22.20;64.60;;;;;;5099842;27;43494;-59
2022/10/27 12:34:42;;;;;;;1.63;1.05;;;22.30;64.50;;;;;;5096727;27;43402;-59
2022/10/27 12:37:16;;;;;;;1.23;1.15;;;22.30;64.50;;;;;;5098368;27;44039;-60
2022/10/27 12:40:03;;;;;;;1.40;1.30;;;22.30;64.60;;;;;;5097031;27;43421;-60
2022/10/27 12:42:31;;;;;;;2.25;1.30;;;22.30;64.40;;;;;;5103397;27;43415;-61
2022/10/27 12:45:25;;;;;;;1.40;1.30;;;22.20;64.40;;;;;;5099709;27;43490;-59
2022/10/27 12:48:22;;;;;;;1.42;1.30;;;22.30;64.40;;;;;;5096782;27;44944;-59
2022/10/27 12:50:59;;;;;;;1.70;1.13;;;22.30;64.40;;;;;;5099397;27;43520;-59
2022/10/27 12:53:50;;;;;;;2.85;0.98;;;22.30;64.40;;;;;;5083169;27;44071;-60
2022/10/27 12:56:42;;;;;;;1.65;1.20;;;22.30;64.30;;;;;;5096737;27;43914;-60
2022/10/27 12:59:47;;;;;;;1.92;1.20;;;22.30;64.50;;;;;;5099421;27;44219;-60
2022/10/27 13:02:18;;;;;;;1.10;1.00;;;22.30;64.40;;;;;;5083150;27;43704;-60
2022/10/27 13:05:30;;;;;;;2.63;1.30;;;22.30;64.50;;;;;;5092901;27;43407;-60
2022/10/27 13:08:18;;;;;;;1.33;1.23;;;22.30;64.40;;;;;;5066972;27;43447;-60
2022/10/27 13:11:04;;;;;;;2.40;1.10;;;22.30;64.70;;;;;;5094788;27;43959;-60
2022/10/27 13:13:46;;;;;;;1.55;1.38;;;22.30;64.50;;;;;;5080309;27;43436;-60
2022/10/27 13:16:37;;;;;;;1.75;1.00;;;22.30;64.40;;;;;;4168097;28;10000379;-60
2022/10/27 13:19:30;;;;;;;1.23;1.05;;;22.30;64.40;;;;;;4157738;28;10000367;-60
2022/10/27 13:22:30;;;;;;;2.95;1.10;;;22.30;64.40;;;;;;5054497;28;44188;-60